Time;durP1;ratioP1;P1;durP2;ratioP2;P2;SDS_P1;SDS_P2;PMS_P1;PMS_P2;Temp;Humidity;BMP_temperature;BMP_pressure;BME280_temperature;BME280_humidity;BME280_pressure;Samples;Min_cycle;Max_cycle;Signal;HPM_P1;HPM_P2
2022/11/24 00:00:01;;;;;;;216.70;68.90;;;;;;;1.37;80.62;99490.61;126577;1274;98754;-75
2022/11/24 00:03:04;;;;;;;74.70;30.40;;;;;;;1.39;80.59;99490.14;126768;1274;99669;-75
2022/11/24 00:06:10;;;;;;;73.30;31.40;;;;;;;1.37;80.76;99488.15;126541;1277;98462;-75
2022/11/24 00:09:13;;;;;;;69.40;29.60;;;;;;;1.37;80.88;99485.41;126667;1298;107490;-75
2022/11/24 00:12:15;;;;;;;65.40;30.90;;;;;;;1.35;80.74;99487.97;126502;1289;99165;-75
2022/11/24 00:15:18;;;;;;;69.30;32.30;;;;;;;1.37;80.71;99490.42;126501;1280;99416;-75
2022/11/24 00:18:21;;;;;;;58.00;27.60;;;;;;;1.40;80.80;99489.53;126494;1279;98749;-73
2022/11/24 00:21:25;;;;;;;66.00;29.80;;;;;;;1.41;80.77;99490.88;126667;1276;98522;-74
2022/11/24 00:24:27;;;;;;;62.50;28.60;;;;;;;1.41;80.81;99492.27;126591;1278;108736;-72
2022/11/24 00:27:33;;;;;;;64.70;28.70;;;;;;;1.37;80.66;99490.46;126533;1288;105960;-72
2022/11/24 00:30:36;;;;;;;66.90;29.80;;;;;;;1.30;80.82;99489.40;126501;1289;107400;-74
2022/11/24 00:33:39;;;;;;;75.40;30.10;;;;;;;1.21;80.82;99491.83;126535;1297;98268;-75
2022/11/24 00:36:43;;;;;;;74.00;28.60;;;;;;;1.16;80.89;99503.88;126520;1290;98025;-73
2022/11/24 00:39:46;;;;;;;62.50;27.20;;;;;;;1.12;81.04;99500.53;126566;1297;106437;-74
2022/11/24 00:42:49;;;;;;;71.50;29.50;;;;;;;1.12;81.00;99496.81;126613;1274;99183;-74
2022/11/24 00:45:52;;;;;;;69.20;29.50;;;;;;;1.16;81.07;99490.23;126455;1297;106620;-75
2022/11/24 00:48:55;;;;;;;69.10;28.90;;;;;;;1.24;81.04;99498.11;126586;1281;98448;-75
2022/11/24 00:51:58;;;;;;;74.80;31.90;;;;;;;1.25;80.79;99501.36;126673;1281;107651;-75
2022/11/24 00:55:00;;;;;;;68.10;30.10;;;;;;;1.26;80.82;99493.20;126624;1275;98110;-74
2022/11/24 00:58:05;;;;;;;68.00;30.30;;;;;;;1.26;80.69;99496.17;126636;1282;98744;-75
2022/11/24 01:01:11;;;;;;;65.90;28.20;;;;;;;1.24;80.82;99502.83;126629;1296;106002;-75
2022/11/24 01:04:13;;;;;;;50.00;22.00;;;;;;;1.20;80.85;99502.77;126725;1288;107433;-75
2022/11/24 01:07:16;;;;;;;59.90;26.90;;;;;;;1.17;80.76;99503.45;126810;1278;106719;-74
2022/11/24 01:10:19;;;;;;;71.10;28.10;;;;;;;1.13;80.74;99501.84;126739;1280;98965;-75
2022/11/24 01:13:21;;;;;;;72.80;30.00;;;;;;;1.10;80.86;99504.50;126709;1284;99147;-75
2022/11/24 01:16:27;;;;;;;54.60;23.40;;;;;;;1.11;80.85;99510.56;126686;1280;98119;-76
2022/11/24 01:19:30;;;;;;;58.90;25.60;;;;;;;1.11;80.55;99512.14;126683;1290;107527;-75
2022/11/24 01:22:33;;;;;;;62.80;26.80;;;;;;;1.12;80.55;99511.52;126604;1282;142766;-74
2022/11/24 01:25:39;;;;;;;60.30;27.50;;;;;;;1.15;80.71;99508.46;126795;1280;107431;-75
2022/11/24 01:28:41;;;;;;;65.50;27.50;;;;;;;1.16;80.53;99501.58;126815;1280;107519;-74
2022/11/24 01:31:44;;;;;;;62.20;28.10;;;;;;;1.10;80.30;99503.83;126750;1298;97997;-75
2022/11/24 01:34:48;;;;;;;56.30;25.10;;;;;;;1.04;80.42;99510.73;126570;1288;99033;-74
2022/11/24 01:37:50;;;;;;;53.40;25.20;;;;;;;1.00;80.30;99511.88;126529;1281;99177;-75
2022/11/24 01:41:01;;;;;;;54.90;25.70;;;;;;;0.98;80.43;99514.66;126623;1288;98019;-75
2022/11/24 01:44:22;;;;;;;50.70;24.20;;;;;;;0.96;80.45;99518.66;126796;1280;107283;-75
2022/11/24 01:47:33;;;;;;;55.30;26.70;;;;;;;0.95;80.58;99522.05;126989;1294;107448;-75
2022/11/24 01:50:36;;;;;;;64.40;27.20;;;;;;;0.92;80.46;99517.39;126622;1280;107282;-75
2022/11/24 01:53:41;;;;;;;62.10;26.80;;;;;;;0.90;80.55;99515.23;126633;1272;97983;-74
2022/11/24 01:56:47;;;;;;;58.00;25.60;;;;;;;0.90;80.44;99515.59;126608;1280;107578;-72
2022/11/24 01:59:55;;;;;;;56.90;25.70;;;;;;;0.97;80.47;99512.66;126505;1280;107678;-74
2022/11/24 02:02:59;;;;;;;51.10;24.00;;;;;;;1.02;80.47;99511.72;126695;1279;107584;-76
2022/11/24 02:06:07;;;;;;;50.10;23.90;;;;;;;1.06;80.33;99514.08;126613;1281;105814;-76
2022/11/24 02:09:17;;;;;;;52.40;24.00;;;;;;;1.07;80.22;99511.06;126722;1274;107588;-75
2022/11/24 02:12:20;;;;;;;51.50;23.70;;;;;;;1.03;79.97;99514.35;126862;1280;106622;-76
2022/11/24 02:15:24;;;;;;;50.60;23.90;;;;;;;1.00;79.91;99512.79;126789;1281;107607;-75
2022/11/24 02:18:27;;;;;;;50.20;23.60;;;;;;;0.96;80.12;99513.05;126695;1288;107652;-75
2022/11/24 02:21:29;;;;;;;54.40;25.00;;;;;;;0.92;80.15;99515.79;126590;1286;99026;-75
2022/11/24 02:24:40;;;;;;;51.80;24.40;;;;;;;0.93;80.30;99510.85;126589;1283;101499;-76
2022/11/24 02:27:44;;;;;;;50.70;24.20;;;;;;;0.91;80.08;99505.38;126587;1282;107521;-75
2022/11/24 02:30:47;;;;;;;59.40;26.30;;;;;;;0.88;80.25;99508.34;126608;1274;107682;-75
2022/11/24 02:33:51;;;;;;;57.70;24.90;;;;;;;0.90;80.24;99507.71;126711;1288;107667;-75
2022/11/24 02:36:53;;;;;;;48.30;21.70;;;;;;;0.94;80.08;99508.63;126566;1282;107509;-75
2022/11/24 02:39:56;;;;;;;56.00;25.40;;;;;;;1.00;80.24;99513.50;126537;1281;98007;-76
2022/11/24 02:43:04;;;;;;;49.90;23.00;;;;;;;1.06;80.07;99514.96;126539;1275;99153;-75
2022/11/24 02:46:08;;;;;;;48.60;22.60;;;;;;;1.09;80.07;99518.23;126582;1288;107573;-75
2022/11/24 02:49:10;;;;;;;46.30;22.30;;;;;;;1.10;80.02;99509.90;126700;1291;107637;-75
2022/11/24 02:52:13;;;;;;;46.60;22.90;;;;;;;1.06;79.96;99514.08;126647;1283;99157;-74
2022/11/24 02:55:16;;;;;;;47.00;23.30;;;;;;;1.05;80.09;99516.77;126600;1282;99620;-76
2022/11/24 02:58:19;;;;;;;45.40;21.40;;;;;;;1.02;80.13;99518.75;126604;1280;98444;-76
2022/11/24 03:01:21;;;;;;;47.10;23.00;;;;;;;0.99;80.09;99515.62;126629;1278;98007;-76
2022/11/24 03:04:24;;;;;;;43.40;21.60;;;;;;;1.00;80.25;99514.19;126667;1286;97980;-76
2022/11/24 03:07:27;;;;;;;42.90;21.40;;;;;;;1.00;80.13;99513.83;126629;1284;99140;-75
2022/11/24 03:10:30;;;;;;;48.20;21.80;;;;;;;0.95;80.08;99517.51;126541;1277;98083;-75
2022/11/24 03:13:32;;;;;;;43.50;20.80;;;;;;;0.92;80.14;99517.70;126448;1288;99321;-74
2022/11/24 03:16:35;;;;;;;41.00;19.10;;;;;;;0.94;80.28;99518.65;126620;1284;99194;-75
2022/11/24 03:19:37;;;;;;;45.80;21.90;;;;;;;0.96;80.26;99519.02;126559;1298;98740;-74
2022/11/24 03:22:40;;;;;;;45.80;22.40;;;;;;;1.00;80.46;99522.38;126642;1278;98115;-73
2022/11/24 03:25:43;;;;;;;45.20;21.70;;;;;;;1.05;80.32;99523.64;126548;1282;98150;-73
2022/11/24 03:28:46;;;;;;;46.60;21.50;;;;;;;1.05;80.33;99523.95;126550;1280;98074;-74
2022/11/24 03:31:49;;;;;;;45.00;21.30;;;;;;;1.00;80.27;99521.91;126607;1290;99038;-76
2022/11/24 03:34:51;;;;;;;44.10;21.00;;;;;;;0.95;80.17;99522.55;126679;1278;99176;-75
2022/11/24 03:37:54;;;;;;;43.90;20.60;;;;;;;0.91;80.28;99525.00;126622;1288;98017;-74
2022/11/24 03:40:57;;;;;;;43.80;20.60;;;;;;;0.83;80.26;99528.36;126621;1290;98759;-75
2022/11/24 03:44:00;;;;;;;40.90;20.40;;;;;;;0.79;80.31;99533.51;126615;1275;99136;-75
2022/11/24 03:47:02;;;;;;;41.40;19.60;;;;;;;0.78;80.27;99532.72;126635;1279;98008;-74
2022/11/24 03:50:06;;;;;;;49.10;21.70;;;;;;;0.70;80.26;99535.17;126772;1288;98049;-75
2022/11/24 03:53:09;;;;;;;46.10;20.60;;;;;;;0.69;80.37;99532.65;126663;1280;98733;-78
2022/11/24 03:56:12;;;;;;;35.00;16.90;;;;;;;0.64;80.34;99536.17;126636;1288;99154;-75
2022/11/24 03:59:15;;;;;;;39.10;18.10;;;;;;;0.67;80.56;99535.08;126822;1280;98261;-76
2022/11/24 04:02:18;;;;;;;36.70;18.00;;;;;;;0.74;80.51;99536.45;126680;1280;98072;-76
2022/11/24 04:05:21;;;;;;;39.20;18.90;;;;;;;0.78;80.29;99538.50;127204;1291;98893;-76
2022/11/24 04:08:24;;;;;;;40.60;18.90;;;;;;;0.74;80.25;99543.00;126590;1288;99129;-75
2022/11/24 04:14:47;;;;;;;36.80;18.40;;;;;;;0.66;80.47;99547.91;126623;1289;98783;-76
2022/11/24 04:17:50;;;;;;;36.90;18.40;;;;;;;0.67;80.55;99548.17;126680;1290;98024;-76
2022/11/24 04:20:53;;;;;;;38.60;18.90;;;;;;;0.63;80.47;99550.58;126655;1281;98801;-76
2022/11/24 04:23:56;;;;;;;41.00;19.10;;;;;;;0.61;80.70;99554.77;126582;1275;98596;-76
2022/11/24 04:26:58;;;;;;;40.60;18.90;;;;;;;0.62;80.54;99557.13;126603;1275;99099;-76
2022/11/24 04:30:01;;;;;;;31.10;15.80;;;;;;;0.59;80.52;99561.51;126593;1277;98372;-75
2022/11/24 04:33:04;;;;;;;38.00;17.80;;;;;;;0.65;80.68;99560.07;126676;1280;98629;-76
2022/11/24 04:36:08;;;;;;;35.90;18.20;;;;;;;0.68;80.30;99565.97;126704;1274;98412;-75
2022/11/24 04:39:10;;;;;;;38.40;17.20;;;;;;;0.63;80.40;99568.23;126803;1274;99134;-77
2022/11/24 04:42:13;;;;;;;31.90;17.20;;;;;;;0.60;80.59;99567.98;126872;1274;98154;-75
2022/11/24 04:45:16;;;;;;;36.60;17.50;;;;;;;0.59;80.63;99564.65;126805;1284;99798;-73
2022/11/24 04:48:19;;;;;;;38.20;18.40;;;;;;;0.60;80.65;99563.88;126729;1288;98089;-76
2022/11/24 04:51:22;;;;;;;48.50;20.70;;;;;;;0.55;80.65;99570.00;126967;1275;99129;-76
2022/11/24 04:54:24;;;;;;;48.20;21.30;;;;;;;0.50;80.61;99574.23;127073;1279;99214;-76
2022/11/24 04:57:28;;;;;;;43.90;20.40;;;;;;;0.49;80.63;99576.02;127013;1281;98076;-76
2022/11/24 05:00:32;;;;;;;47.80;20.50;;;;;;;0.49;80.63;99579.72;126725;1280;98083;-75
2022/11/24 05:03:35;;;;;;;54.00;22.20;;;;;;;0.53;80.62;99585.86;126715;1288;97982;-72
2022/11/24 05:06:38;;;;;;;49.60;20.10;;;;;;;0.55;80.56;99587.70;126636;1280;98008;-76
2022/11/24 05:12:58;;;;;;;47.50;20.30;;;;;;;0.61;80.63;99587.96;126590;1283;98021;-75
2022/11/24 05:16:01;;;;;;;48.00;21.30;;;;;;;0.63;80.69;99582.64;126703;1278;99155;-75
2022/11/24 05:19:03;;;;;;;46.50;20.60;;;;;;;0.67;80.54;99581.11;126658;1280;99150;-75
2022/11/24 05:22:06;;;;;;;44.20;20.40;;;;;;;0.70;80.66;99575.65;126682;1280;98079;-75
2022/11/24 05:25:10;;;;;;;36.80;17.20;;;;;;;0.73;80.62;99581.19;126588;1297;99144;-75
2022/11/24 05:28:13;;;;;;;33.30;17.10;;;;;;;0.71;80.38;99585.19;126621;1288;98058;-74
2022/11/24 05:31:16;;;;;;;36.70;17.70;;;;;;;0.69;80.55;99587.05;126453;1288;98046;-74
2022/11/24 05:34:19;;;;;;;34.70;18.10;;;;;;;0.66;80.39;99590.41;126589;1286;98454;-73
2022/11/24 05:37:21;;;;;;;34.70;17.50;;;;;;;0.59;80.58;99593.36;126518;1278;98649;-73
2022/11/24 05:40:24;;;;;;;38.60;18.20;;;;;;;0.52;80.63;99598.39;126593;1288;99140;-74
2022/11/24 05:43:27;;;;;;;34.30;16.60;;;;;;;0.50;80.67;99602.94;126487;1287;98010;-73
2022/11/24 05:46:30;;;;;;;32.00;16.10;;;;;;;0.50;80.78;99600.86;126720;1280;99037;-75
2022/11/24 05:49:32;;;;;;;31.60;14.80;;;;;;;0.54;80.67;99605.95;126715;1281;98095;-73
2022/11/24 05:52:35;;;;;;;32.70;16.30;;;;;;;0.56;80.60;99604.46;126848;1281;98014;-75
2022/11/24 05:55:39;;;;;;;30.70;16.60;;;;;;;0.60;80.81;99605.05;126603;1286;99144;-73
2022/11/24 05:58:43;;;;;;;30.30;16.10;;;;;;;0.62;80.65;99613.80;128233;1274;98066;-74
2022/11/24 06:01:46;;;;;;;28.50;16.20;;;;;;;0.64;80.53;99619.85;126822;1274;97983;-73
2022/11/24 06:04:49;;;;;;;32.40;15.70;;;;;;;0.58;80.54;99621.44;126713;1282;99172;-73
2022/11/24 06:07:52;;;;;;;31.40;15.90;;;;;;;0.56;80.75;99617.71;126633;1280;97983;-75
2022/11/24 06:11:15;;;;;;;28.30;14.40;;;;;;;0.58;80.89;99621.48;126620;1274;99051;-75
2022/11/24 06:14:18;;;;;;;34.90;17.40;;;;;;;0.54;80.82;99624.52;126602;1280;97995;-78
2022/11/24 06:17:21;;;;;;;34.90;18.00;;;;;;;0.50;80.95;99626.56;126805;1280;99052;-80
2022/11/24 06:20:24;;;;;;;31.70;15.90;;;;;;;0.51;80.68;99633.46;126712;1288;99153;-76
2022/11/24 06:23:27;;;;;;;31.70;14.80;;;;;;;0.44;80.65;99631.84;126659;1282;97979;-77
2022/11/24 06:26:29;;;;;;;31.00;15.60;;;;;;;0.37;80.79;99634.56;126701;1281;99144;-77
2022/11/24 06:29:32;;;;;;;29.50;14.70;;;;;;;0.39;80.76;99633.38;126741;1281;97981;-75
2022/11/24 06:32:35;;;;;;;25.50;13.30;;;;;;;0.43;80.98;99630.89;126836;1279;98132;-75
2022/11/24 06:35:37;;;;;;;26.40;13.40;;;;;;;0.58;80.97;99638.98;126669;1283;99179;-79
2022/11/24 06:38:40;;;;;;;25.10;13.00;;;;;;;0.65;80.71;99635.99;126703;1280;98077;-75
2022/11/24 06:41:43;;;;;;;24.40;12.80;;;;;;;0.69;80.72;99637.66;126574;1289;99179;-80
2022/11/24 06:44:46;;;;;;;25.60;14.00;;;;;;;0.70;80.70;99639.86;126627;1281;98141;-77
2022/11/24 06:47:52;;;;;;;25.50;13.60;;;;;;;0.70;80.79;99641.28;126735;1281;99158;-76
2022/11/24 06:50:58;;;;;;;24.70;13.00;;;;;;;0.68;80.58;99644.06;126620;1291;98008;-75
2022/11/24 06:54:05;;;;;;;29.50;15.30;;;;;;;0.66;80.66;99644.05;126506;1285;98420;-75
2022/11/24 06:57:07;;;;;;;28.10;14.70;;;;;;;0.63;80.80;99645.11;126669;1288;98001;-75
2022/11/24 07:00:12;;;;;;;26.40;14.40;;;;;;;0.67;80.91;99651.77;126543;1290;97967;-76
2022/11/24 07:03:17;;;;;;;28.10;16.00;;;;;;;0.69;80.89;99654.08;126805;1282;98086;-75
2022/11/24 07:06:23;;;;;;;27.80;14.20;;;;;;;0.70;80.70;99656.19;126582;1288;99150;-74
2022/11/24 07:09:25;;;;;;;27.70;14.50;;;;;;;0.65;80.57;99663.83;126626;1288;97984;-75
2022/11/24 07:12:32;;;;;;;22.60;11.80;;;;;;;0.61;80.92;99663.09;126980;1283;97983;-74
2022/11/24 07:15:35;;;;;;;23.60;12.10;;;;;;;0.65;80.74;99665.27;126695;1281;97990;-76
2022/11/24 07:18:38;;;;;;;22.40;12.40;;;;;;;0.74;80.95;99660.29;126726;1281;98093;-75
2022/11/24 07:21:40;;;;;;;21.70;12.40;;;;;;;0.80;80.81;99656.71;126648;1298;98855;-75
2022/11/24 07:24:43;;;;;;;26.40;14.10;;;;;;;0.86;80.79;99658.73;126715;1287;99186;-75
2022/11/24 07:27:46;;;;;;;27.60;15.00;;;;;;;0.82;80.43;99663.44;126652;1276;98654;-75
2022/11/24 07:30:49;;;;;;;25.00;13.90;;;;;;;0.75;80.62;99663.70;126712;1282;99167;-75
2022/11/24 07:33:53;;;;;;;29.00;15.20;;;;;;;0.78;80.82;99663.66;126845;1296;98448;-75
2022/11/24 07:36:56;;;;;;;25.20;13.10;;;;;;;0.77;80.72;99659.50;126714;1283;98063;-74
2022/11/24 07:39:59;;;;;;;25.10;13.20;;;;;;;0.66;80.63;99664.46;126688;1278;98780;-75
2022/11/24 07:43:01;;;;;;;28.70;13.40;;;;;;;0.52;80.61;99666.63;126684;1285;97997;-75
2022/11/24 07:46:09;;;;;;;27.40;13.60;;;;;;;0.43;81.07;99667.30;126533;1290;98093;-74
2022/11/24 07:49:12;;;;;;;20.90;10.60;;;;;;;0.38;81.25;99677.71;126765;1278;98702;-74
2022/11/24 07:52:14;;;;;;;23.70;12.40;;;;;;;0.49;81.20;99681.56;126690;1280;99244;-75
2022/11/24 07:55:17;;;;;;;23.60;13.20;;;;;;;0.63;81.25;99681.86;126700;1274;98022;-75
2022/11/24 07:58:20;;;;;;;23.90;13.20;;;;;;;0.71;80.87;99674.66;126775;1279;99148;-75
2022/11/24 08:01:23;;;;;;;24.70;12.40;;;;;;;0.76;80.98;99674.30;126641;1295;99109;-75
2022/11/24 08:04:28;;;;;;;22.20;12.40;;;;;;;0.83;80.96;99676.13;126746;1284;98068;-75
2022/11/24 08:07:31;;;;;;;23.20;12.50;;;;;;;0.81;80.67;99677.30;126729;1274;99273;-75
2022/11/24 08:10:34;;;;;;;22.50;12.20;;;;;;;0.88;81.12;99677.87;126669;1282;98216;-74
2022/11/24 08:13:37;;;;;;;23.80;12.70;;;;;;;0.97;80.89;99675.52;126590;1278;99718;-75
2022/11/24 08:16:39;;;;;;;25.50;14.40;;;;;;;0.96;80.72;99680.81;126551;1277;98019;-74
2022/11/24 08:19:42;;;;;;;27.30;14.00;;;;;;;0.88;80.62;99682.29;126697;1284;99103;-75
2022/11/24 08:22:44;;;;;;;25.40;13.60;;;;;;;0.85;80.93;99687.57;126644;1281;99099;-75
2022/11/24 08:25:47;;;;;;;24.90;12.20;;;;;;;0.88;80.83;99691.89;126686;1291;98008;-75
2022/11/24 08:28:53;;;;;;;24.50;12.80;;;;;;;0.92;80.80;99691.46;126850;1281;110914;-75
2022/11/24 08:31:56;;;;;;;24.80;13.80;;;;;;;0.94;80.66;99699.73;126917;1280;111228;-75
2022/11/24 08:34:59;;;;;;;21.70;11.80;;;;;;;0.99;80.68;99703.05;126978;1281;98008;-76
2022/11/24 08:38:01;;;;;;;22.60;12.70;;;;;;;0.94;80.51;99706.34;126512;1288;99146;-73
2022/11/24 08:41:07;;;;;;;22.30;12.70;;;;;;;0.95;80.86;99703.83;126566;1288;99143;-74
2022/11/24 08:44:13;;;;;;;60.60;39.70;;;;;;;1.00;80.60;99705.40;126612;1298;111259;-73
2022/11/24 08:47:16;;;;;;;27.40;16.00;;;;;;;1.02;80.67;99705.84;126556;1288;111153;-74
2022/11/24 08:50:19;;;;;;;39.20;24.00;;;;;;;0.99;80.47;99703.59;126617;1286;98661;-74
2022/11/24 08:53:22;;;;;;;32.40;18.00;;;;;;;0.91;80.71;99704.27;126517;1281;99147;-74
2022/11/24 08:56:26;;;;;;;33.30;16.70;;;;;;;0.98;81.05;99708.40;126848;1287;98748;-74
2022/11/24 08:59:29;;;;;;;29.60;14.60;;;;;;;1.05;80.79;99709.48;126701;1281;111012;-74
2022/11/24 09:02:31;;;;;;;22.10;10.70;;;;;;;1.04;80.49;99707.74;126843;1283;98491;-74
2022/11/24 09:05:34;;;;;;;25.40;14.20;;;;;;;1.04;80.57;99706.20;126813;1273;98507;-73
2022/11/24 09:08:37;;;;;;;24.50;13.80;;;;;;;1.04;80.66;99706.70;126742;1280;99155;-74
2022/11/24 09:11:40;;;;;;;23.80;14.50;;;;;;;1.03;80.53;99705.05;126662;1277;97980;-73
2022/11/24 09:14:42;;;;;;;33.20;17.50;;;;;;;0.96;80.65;99707.08;126599;1281;98781;-74
2022/11/24 09:17:45;;;;;;;35.90;18.90;;;;;;;0.95;80.64;99704.86;126542;1282;98006;-74
2022/11/24 09:20:48;;;;;;;26.60;13.70;;;;;;;0.98;80.94;99709.59;126699;1288;98064;-74
2022/11/24 09:23:52;;;;;;;20.80;12.10;;;;;;;1.06;80.90;99713.61;126704;1274;98013;-74
2022/11/24 09:26:55;;;;;;;28.70;17.20;;;;;;;1.04;80.71;99708.98;126589;1288;107485;-74
2022/11/24 09:29:58;;;;;;;25.40;14.00;;;;;;;1.00;80.65;99708.38;126609;1288;107568;-74
2022/11/24 09:33:01;;;;;;;29.60;16.30;;;;;;;1.02;80.85;99718.62;126540;1282;99140;-73
2022/11/24 09:36:04;;;;;;;33.30;19.40;;;;;;;1.01;80.76;99724.13;126537;1282;98095;-73
2022/11/24 09:39:07;;;;;;;36.30;17.40;;;;;;;1.00;80.78;99724.52;126516;1282;98166;-75
2022/11/24 09:42:15;;;;;;;52.00;22.50;;;;;;;1.00;80.64;99731.85;126517;1283;99092;-74
2022/11/24 09:45:46;;;;;;;45.00;22.40;;;;;;;1.03;80.95;99725.91;126629;1274;106576;-73
2022/11/24 09:48:53;;;;;;;44.70;24.10;;;;;;;1.19;80.87;99729.84;126639;1282;107670;-74
2022/11/24 09:51:57;;;;;;;41.30;21.80;;;;;;;1.28;80.49;99729.08;127042;1288;107353;-73
2022/11/24 09:55:02;;;;;;;44.30;25.40;;;;;;;1.27;80.64;99730.37;126938;1285;107322;-73
2022/11/24 09:58:34;;;;;;;29.20;16.50;;;;;;;1.27;80.49;99729.34;126698;1286;107450;-73
2022/11/24 10:01:41;;;;;;;33.40;18.90;;;;;;;1.30;80.33;99722.11;126849;1288;107515;-74
2022/11/24 10:04:46;;;;;;;31.50;17.50;;;;;;;1.23;80.56;99718.55;126849;1282;107598;-73
2022/11/24 10:08:02;;;;;;;36.30;19.60;;;;;;;1.31;80.83;99718.86;126544;1288;105362;-73
2022/11/24 10:11:11;;;;;;;34.00;17.50;;;;;;;1.41;80.50;99718.53;126581;1282;106780;-73
2022/11/24 10:14:33;;;;;;;28.10;15.80;;;;;;;1.51;80.51;99720.22;126688;1288;108732;-73
2022/11/24 10:17:48;;;;;;;28.80;16.80;;;;;;;1.58;80.07;99728.02;126638;1280;107691;-75
2022/11/24 10:21:03;;;;;;;48.80;24.70;;;;;;;1.64;80.34;99731.25;126808;1282;107469;-74
2022/11/24 10:24:26;;;;;;;37.00;22.00;;;;;;;1.74;80.62;99726.20;126720;1285;107532;-73
2022/11/24 10:27:32;;;;;;;;;;;;;;;1.86;80.19;99725.17;126607;1277;108115;-73
2022/11/24 10:30:36;;;;;;;27.60;14.70;;;;;;;1.87;79.93;99728.92;126523;1288;107510;-73
2022/11/24 10:33:40;;;;;;;28.20;16.40;;;;;;;1.84;79.85;99729.66;126611;1282;107568;-73
2022/11/24 10:36:51;;;;;;;29.30;16.60;;;;;;;1.87;80.04;99728.95;126626;1274;107573;-73
2022/11/24 10:40:07;;;;;;;26.60;15.10;;;;;;;1.82;79.67;99726.98;126685;1277;107698;-74
2022/11/24 10:43:11;;;;;;;25.60;15.50;;;;;;;1.75;80.01;99727.36;126599;1285;107593;-75
2022/11/24 10:46:18;;;;;;;28.30;16.10;;;;;;;1.71;80.35;99726.70;126583;1281;106637;-73
2022/11/24 10:49:26;;;;;;;25.90;15.20;;;;;;;1.68;80.03;99728.52;126587;1281;107437;-74
2022/11/24 10:52:34;;;;;;;26.60;14.30;;;;;;;1.72;80.59;99731.41;126682;1286;107624;-74
2022/11/24 10:56:03;;;;;;;25.80;13.90;;;;;;;1.77;79.73;99735.29;126610;1281;107568;-74
2022/11/24 10:59:31;;;;;;;21.40;11.10;;;;;;;1.75;79.83;99732.10;126794;1282;106727;-74
2022/11/24 11:02:38;;;;;;;25.50;13.30;;;;;;;1.82;79.95;99733.36;126834;1288;107514;-73
2022/11/24 11:05:43;;;;;;;21.70;12.90;;;;;;;1.83;79.41;99737.14;126624;1291;107327;-74
2022/11/24 11:08:46;;;;;;;24.50;13.70;;;;;;;1.82;79.84;99738.40;126536;1282;107471;-73
2022/11/24 11:11:52;;;;;;;23.60;13.90;;;;;;;1.84;79.74;99740.05;126620;1288;99185;-69
2022/11/24 11:14:55;;;;;;;21.70;13.40;;;;;;;1.81;79.68;99739.36;126586;1293;107601;-73
2022/11/24 11:17:59;;;;;;;25.90;14.10;;;;;;;1.82;79.84;99744.00;126612;1281;98670;-74
2022/11/24 11:21:04;;;;;;;21.50;12.90;;;;;;;1.89;79.91;99742.27;126631;1287;107445;-74
2022/11/24 11:24:17;;;;;;;21.70;12.50;;;;;;;1.89;79.90;99742.83;126539;1297;107510;-73
2022/11/24 11:27:23;;;;;;;21.50;13.20;;;;;;;1.99;79.85;99742.27;126612;1291;107599;-74
2022/11/24 11:30:27;;;;;;;22.90;13.20;;;;;;;2.04;79.66;99736.71;126517;1281;107223;-74
2022/11/24 11:33:31;;;;;;;21.50;12.30;;;;;;;1.97;79.37;99737.18;126688;1280;107551;-73
2022/11/24 11:36:38;;;;;;;22.90;12.50;;;;;;;1.87;79.62;99732.80;126500;1291;107709;-74
2022/11/24 11:39:45;;;;;;;23.10;12.20;;;;;;;1.83;79.76;99734.64;126535;1298;108903;-74
2022/11/24 11:42:53;;;;;;;28.40;15.30;;;;;;;1.87;79.74;99738.08;126728;1282;107448;-73
2022/11/24 11:46:02;;;;;;;24.80;14.00;;;;;;;1.92;79.44;99736.10;126526;1281;107603;-74
2022/11/24 11:49:10;;;;;;;23.70;13.60;;;;;;;1.99;79.56;99741.56;126733;1287;106546;-75
2022/11/24 11:52:32;;;;;;;27.30;15.50;;;;;;;2.07;79.32;99741.75;126685;1282;107931;-75
2022/11/24 11:55:47;;;;;;;31.80;16.10;;;;;;;2.08;79.56;99743.25;126659;1289;107445;-74
2022/11/24 11:59:11;;;;;;;35.20;20.00;;;;;;;2.14;79.43;99742.27;126559;1288;107599;-74
2022/11/24 12:02:46;;;;;;;24.70;14.00;;;;;;;2.11;79.35;99742.14;126517;1291;107606;-73
2022/11/24 12:05:59;;;;;;;21.00;13.00;;;;;;;2.11;79.31;99744.44;126667;1281;107786;-74
2022/11/24 12:09:15;;;;;;;22.90;14.30;;;;;;;2.02;79.16;99744.73;126764;1285;107495;-73
2022/11/24 12:12:35;;;;;;;21.20;12.90;;;;;;;1.94;79.40;99741.58;126691;1287;107500;-74
2022/11/24 12:15:43;;;;;;;20.80;12.40;;;;;;;1.90;79.45;99743.25;126696;1277;107517;-74
2022/11/24 12:18:55;;;;;;;24.90;13.30;;;;;;;1.90;79.15;99746.94;126627;1286;107563;-73
2022/11/24 12:22:01;;;;;;;;;;;;;;;1.82;79.43;99749.81;126667;1301;107569;-74
2022/11/24 12:25:22;;;;;;;20.90;11.60;;;;;;;1.79;79.28;99751.77;126848;1288;107260;-74
2022/11/24 12:28:36;;;;;;;19.10;10.80;;;;;;;1.78;79.24;99756.79;126549;1285;107308;-74
2022/11/24 12:31:50;;;;;;;21.50;12.80;;;;;;;1.90;79.65;99763.95;126636;1282;107669;-74
2022/11/24 12:34:58;;;;;;;21.20;11.90;;;;;;;1.98;79.40;99766.22;126633;1289;107719;-73
2022/11/24 12:38:11;;;;;;;18.90;11.70;;;;;;;1.97;79.12;99768.54;126521;1287;107242;-74
2022/11/24 12:41:24;;;;;;;19.20;12.00;;;;;;;1.94;79.10;99763.29;126571;1281;107542;-75
2022/11/24 12:44:49;;;;;;;21.90;13.00;;;;;;;1.91;79.17;99766.73;126679;1288;107995;-75
2022/11/24 12:48:07;;;;;;;22.80;12.90;;;;;;;1.96;79.19;99763.55;126780;1285;107500;-73
2022/11/24 12:51:17;;;;;;;25.60;13.70;;;;;;;1.99;79.57;99768.73;126862;1281;107579;-75
2022/11/24 12:54:22;;;;;;;22.80;13.60;;;;;;;2.07;79.04;99771.56;126945;1282;108787;-74
2022/11/24 12:57:29;;;;;;;24.60;14.90;;;;;;;1.97;79.03;99774.55;126644;1276;107763;-73
2022/11/24 13:00:40;;;;;;;24.40;13.90;;;;;;;1.88;79.24;99774.30;126865;1289;108493;-73
2022/11/24 13:03:56;;;;;;;25.50;14.40;;;;;;;1.88;79.40;99775.30;127100;1284;107481;-75
2022/11/24 13:07:03;;;;;;;26.10;13.70;;;;;;;1.90;79.54;99776.02;127123;1287;107216;-75
2022/11/24 13:10:32;;;;;;;24.60;14.20;;;;;;;2.01;79.57;99777.94;126890;1277;108769;-74
2022/11/24 13:13:59;;;;;;;28.50;15.70;;;;;;;2.05;78.96;99781.67;126767;1285;107382;-73
2022/11/24 13:17:03;;;;;;;24.50;13.30;;;;;;;1.97;79.16;99775.05;126829;1294;107608;-71
2022/11/24 13:20:23;;;;;;;30.50;14.90;;;;;;;1.92;78.94;99776.11;126807;1281;107507;-72
2022/11/24 13:23:28;;;;;;;22.40;12.90;;;;;;;1.85;79.12;99778.70;126702;1286;108258;-71
2022/11/24 13:26:45;;;;;;;24.50;14.00;;;;;;;1.83;79.39;99771.81;126598;1285;108392;-73
2022/11/24 13:29:49;;;;;;;23.10;13.00;;;;;;;1.89;79.37;99773.31;126685;1285;108886;-75
2022/11/24 13:33:17;;;;;;;21.80;13.00;;;;;;;1.86;79.15;99773.88;126743;1289;107392;-73
2022/11/24 13:36:32;;;;;;;26.90;14.50;;;;;;;1.78;79.15;99771.48;126731;1287;107627;-73
2022/11/24 13:39:48;;;;;;;25.10;14.30;;;;;;;1.69;79.21;99775.33;126527;1286;107515;-73
2022/11/24 13:43:22;;;;;;;26.10;14.90;;;;;;;1.60;79.12;99773.48;126499;1294;107742;-74
2022/11/24 13:46:58;;;;;;;25.40;14.70;;;;;;;1.55;79.66;99769.37;126819;1281;107671;-72
2022/11/24 13:50:02;;;;;;;32.30;17.10;;;;;;;1.64;79.78;99766.89;126658;1298;107686;-70
2022/11/24 13:53:14;;;;;;;27.80;16.20;;;;;;;1.57;79.24;99773.98;126635;1287;107515;-74
2022/11/24 13:56:28;;;;;;;23.60;13.90;;;;;;;1.54;79.50;99780.17;126566;1287;107532;-73
2022/11/24 13:59:34;;;;;;;29.50;16.20;;;;;;;1.52;79.34;99783.27;126684;1293;107506;-74
2022/11/24 14:02:37;;;;;;;27.30;15.40;;;;;;;1.50;79.46;99784.86;126534;1287;106071;-74
2022/11/24 14:05:47;;;;;;;27.90;15.40;;;;;;;1.52;79.37;99788.59;126508;1287;99279;-73
2022/11/24 14:08:51;;;;;;;28.30;15.90;;;;;;;1.48;79.34;99788.11;126562;1290;106878;-73
2022/11/24 14:12:01;;;;;;;47.20;27.10;;;;;;;1.42;79.56;99791.05;126738;1282;107625;-72
2022/11/24 14:15:22;;;;;;;31.00;16.60;;;;;;;1.35;79.60;99791.14;126780;1282;107522;-73
2022/11/24 14:18:25;;;;;;;30.10;16.80;;;;;;;1.28;79.79;99793.23;126892;1280;107501;-71